createdAt,value
2017-04-19T00:00:08.502Z,1028.32
2017-04-19T00:01:19.575Z,1028.38
2017-04-19T00:02:30.602Z,1028.38
2017-04-19T00:03:41.632Z,1028.36
2017-04-19T00:04:52.853Z,1028.41
2017-04-19T00:06:03.927Z,1028.36
2017-04-19T00:07:15.158Z,1028.38
2017-04-19T00:08:26.172Z,1028.37
2017-04-19T00:09:37.201Z,1028.37
2017-04-19T00:10:48.222Z,1028.39
2017-04-19T00:11:59.241Z,1028.42
2017-04-19T00:13:10.521Z,1028.44
2017-04-19T00:14:21.548Z,1028.43
2017-04-19T00:15:33.052Z,1028.4
2017-04-19T00:16:44.079Z,1028.44
2017-04-19T00:17:55.372Z,1028.43
2017-04-19T00:19:06.395Z,1028.51
2017-04-19T00:20:17.432Z,1028.46
2017-04-19T00:21:28.450Z,1028.49
2017-04-19T00:22:39.526Z,1028.51
2017-04-19T00:23:50.559Z,1028.51
2017-04-19T00:25:01.586Z,1028.47
2017-04-19T00:26:13.022Z,1028.47
2017-04-19T00:27:24.049Z,1028.48
2017-04-19T00:28:35.060Z,1028.53
2017-04-19T00:29:46.086Z,1028.47
2017-04-19T00:30:57.097Z,1028.48
2017-04-19T00:32:08.123Z,1028.48
2017-04-19T00:33:19.392Z,1028.51
2017-04-19T00:34:30.406Z,1028.47
2017-04-19T00:35:41.451Z,1028.47
2017-04-19T00:36:52.471Z,1028.48
2017-04-19T00:38:03.497Z,1028.47
2017-04-19T00:39:14.582Z,1028.44
2017-04-19T00:40:25.665Z,1028.45
2017-04-19T00:41:36.683Z,1028.45
2017-04-19T00:42:47.909Z,1028.49
2017-04-19T00:43:58.928Z,1028.47
2017-04-19T00:45:09.945Z,1028.46
2017-04-19T00:46:20.957Z,1028.48
2017-04-19T00:47:31.979Z,1028.5
2017-04-19T00:48:43.029Z,1028.51
2017-04-19T00:49:54.058Z,1028.49
2017-04-19T00:51:05.343Z,1028.53
2017-04-19T00:52:16.570Z,1028.49
2017-04-19T00:53:27.602Z,1028.52
2017-04-19T00:54:38.642Z,1028.54
2017-04-19T00:55:49.676Z,1028.57
2017-04-19T00:57:00.697Z,1028.52
2017-04-19T00:58:11.719Z,1028.58
2017-04-19T00:59:22.733Z,1028.55
2017-04-19T01:00:34.189Z,1028.49
2017-04-19T01:01:45.318Z,1028.53
2017-04-19T01:02:56.356Z,1028.54
2017-04-19T01:04:07.386Z,1028.55
2017-04-19T01:05:18.629Z,1028.51
2017-04-19T01:06:29.643Z,1028.54
2017-04-19T01:07:40.656Z,1028.58
2017-04-19T01:08:51.687Z,1028.57
2017-04-19T01:10:03.118Z,1028.62
2017-04-19T01:11:14.384Z,1028.6
2017-04-19T01:12:25.414Z,1028.65
2017-04-19T01:13:36.435Z,1028.64
2017-04-19T01:14:47.465Z,1028.68
2017-04-19T01:15:58.485Z,1028.63
2017-04-19T01:17:09.900Z,1028.66
2017-04-19T01:18:20.980Z,1028.65
2017-04-19T01:19:32.011Z,1028.65
2017-04-19T01:20:43.229Z,1028.65
2017-04-19T01:21:54.298Z,1028.63
2017-04-19T01:23:05.319Z,1028.66
2017-04-19T01:24:16.545Z,1028.69
2017-04-19T01:25:27.562Z,1028.68
2017-04-19T01:42:56.465Z,1028.74
2017-04-19T01:44:07.703Z,1028.78
2017-04-19T01:45:18.782Z,1028.81
2017-04-19T01:46:29.815Z,1028.81
2017-04-19T01:47:41.041Z,1028.79
2017-04-19T01:48:52.064Z,1028.78
2017-04-19T01:50:03.087Z,1028.8
2017-04-19T01:51:14.103Z,1028.78
2017-04-19T01:52:25.326Z,1028.76
2017-04-19T01:53:36.359Z,1028.84
2017-04-19T01:54:47.422Z,1028.81
2017-04-19T01:55:58.448Z,1028.82
2017-04-19T01:57:09.472Z,1028.82
2017-04-19T01:58:20.514Z,1028.86
2017-04-19T01:59:31.744Z,1028.88
2017-04-19T02:00:42.767Z,1028.88
2017-04-19T02:01:53.781Z,1028.88
2017-04-19T02:03:04.792Z,1028.89
2017-04-19T02:04:15.809Z,1028.86
2017-04-19T02:05:26.879Z,1028.9
2017-04-19T02:06:37.898Z,1028.87
2017-04-19T02:07:48.920Z,1028.84
2017-04-19T02:08:59.940Z,1028.87
2017-04-19T02:10:10.968Z,1028.9
2017-04-19T02:11:22.002Z,1028.92
2017-04-19T02:12:33.024Z,1028.92
2017-04-19T02:13:44.049Z,1028.89
2017-04-19T02:14:55.075Z,1028.97
2017-04-19T02:16:06.293Z,1028.92
2017-04-19T02:17:17.321Z,1028.97
2017-04-19T02:18:28.359Z,1028.98
2017-04-19T02:19:39.397Z,1028.96
2017-04-19T02:20:50.418Z,1029.01
2017-04-19T02:22:01.434Z,1028.96
2017-04-19T02:23:12.464Z,1028.97
2017-04-19T02:24:23.576Z,1028.99
2017-04-19T02:25:34.597Z,1029.03
2017-04-19T02:26:45.831Z,1029.01
2017-04-19T02:27:56.920Z,1029.03
2017-04-19T02:29:08.150Z,1029.02
2017-04-19T02:30:19.383Z,1029.03
2017-04-19T02:31:30.409Z,1029.05
2017-04-19T02:32:41.431Z,1029.05
2017-04-19T02:33:52.462Z,1029.04
2017-04-19T02:35:03.479Z,1029.08
2017-04-19T02:36:14.500Z,1029.09
2017-04-19T02:37:25.806Z,1029.11
2017-04-19T02:38:36.834Z,1029.12
2017-04-19T02:39:47.885Z,1029.07
2017-04-19T02:40:58.922Z,1029.08
2017-04-19T02:42:09.940Z,1029.07
2017-04-19T02:43:21.106Z,1029.1
2017-04-19T02:44:32.126Z,1029.12
2017-04-19T02:45:43.142Z,1029.1
2017-04-19T02:46:54.152Z,1029.16
2017-04-19T02:48:05.226Z,1029.12
2017-04-19T02:49:16.255Z,1029.15
2017-04-19T02:50:27.279Z,1029.15
2017-04-19T02:51:38.299Z,1029.13
2017-04-19T02:52:49.346Z,1029.13
2017-04-19T02:54:00.444Z,1029.14
2017-04-19T02:55:11.470Z,1029.12
2017-04-19T02:56:22.698Z,1029.13
2017-04-19T02:57:33.716Z,1029.09
2017-04-19T02:58:44.734Z,1029.15
2017-04-19T02:59:55.751Z,1029.11
2017-04-19T03:01:06.771Z,1029.14
2017-04-19T03:02:17.793Z,1029.12
2017-04-19T03:03:28.832Z,1029.1
2017-04-19T03:04:39.855Z,1029.14
2017-04-19T03:05:51.120Z,1029.16
2017-04-19T03:07:02.279Z,1029.13
2017-04-19T03:08:13.501Z,1029.18
2017-04-19T03:09:24.582Z,1029.2
2017-04-19T03:10:35.817Z,1029.15
2017-04-19T03:11:47.095Z,1029.2
2017-04-19T03:12:58.324Z,1029.19
2017-04-19T03:14:09.556Z,1029.13
2017-04-19T03:15:20.781Z,1029.15
2017-04-19T03:16:32.212Z,1029.21
2017-04-19T03:17:43.464Z,1029.17
2017-04-19T03:18:54.487Z,1029.22
2017-04-19T03:20:05.504Z,1029.17
2017-04-19T03:21:16.577Z,1029.19
2017-04-19T03:22:27.801Z,1029.17
2017-04-19T03:23:38.826Z,1029.21
2017-04-19T03:24:49.861Z,1029.16
2017-04-19T03:26:00.889Z,1029.17
2017-04-19T03:27:12.182Z,1029.22
2017-04-19T03:28:23.404Z,1029.21
2017-04-19T03:29:34.428Z,1029.22
2017-04-19T03:30:45.696Z,1029.27
2017-04-19T03:31:57.366Z,1029.26
2017-04-19T03:33:08.586Z,1029.29
2017-04-19T03:34:19.601Z,1029.3
2017-04-19T03:35:30.619Z,1029.31
2017-04-19T03:36:41.642Z,1029.34
2017-04-19T03:37:52.649Z,1029.36
2017-04-19T03:39:03.668Z,1029.34
2017-04-19T03:40:14.889Z,1029.36
2017-04-19T03:41:25.925Z,1029.36
2017-04-19T03:42:37.154Z,1029.37
2017-04-19T03:43:48.187Z,1029.36
2017-04-19T03:44:59.413Z,1029.39
2017-04-19T03:46:10.432Z,1029.4
2017-04-19T03:47:21.648Z,1029.42
2017-04-19T03:48:32.667Z,1029.44
2017-04-19T03:49:44.027Z,1029.43
2017-04-19T03:50:55.046Z,1029.44
2017-04-19T03:52:06.059Z,1029.43
2017-04-19T03:53:17.081Z,1029.48
2017-04-19T03:54:28.110Z,1029.46
2017-04-19T03:55:39.139Z,1029.49
2017-04-19T03:56:50.154Z,1029.45
2017-04-19T03:58:01.367Z,1029.48
2017-04-19T03:59:12.642Z,1029.49
2017-04-19T04:00:23.652Z,1029.48
2017-04-19T04:01:34.680Z,1029.48
2017-04-19T04:02:45.697Z,1029.47
2017-04-19T04:03:56.710Z,1029.48
2017-04-19T04:05:07.922Z,1029.5
2017-04-19T04:06:19.168Z,1029.54
2017-04-19T04:07:30.400Z,1029.53
2017-04-19T04:08:41.417Z,1029.55
2017-04-19T04:09:52.482Z,1029.55
2017-04-19T04:11:03.496Z,1029.59
2017-04-19T04:12:14.520Z,1029.54
2017-04-19T04:13:25.745Z,1029.57
2017-04-19T04:14:36.771Z,1029.55
2017-04-19T04:15:48.248Z,1029.56
2017-04-19T04:16:59.282Z,1029.61
2017-04-19T04:18:10.508Z,1029.62
2017-04-19T04:19:21.997Z,1029.63
2017-04-19T04:20:33.015Z,1029.65
2017-04-19T04:21:44.249Z,1029.63
2017-04-19T04:22:55.273Z,1029.58
2017-04-19T04:24:06.296Z,1029.59
2017-04-19T04:25:17.319Z,1029.61
2017-04-19T04:26:28.357Z,1029.61
2017-04-19T04:27:39.630Z,1029.64
2017-04-19T04:28:50.659Z,1029.64
2017-04-19T04:30:01.671Z,1029.64
2017-04-19T04:31:12.870Z,1029.61
2017-04-19T04:32:24.131Z,1029.64
2017-04-19T04:33:35.155Z,1029.6
2017-04-19T04:34:46.173Z,1029.62
2017-04-19T04:35:57.209Z,1029.63
2017-04-19T04:37:08.472Z,1029.7
2017-04-19T04:38:19.497Z,1029.65
2017-04-19T04:39:30.515Z,1029.67
2017-04-19T04:40:41.540Z,1029.73
2017-04-19T04:41:52.563Z,1029.68
2017-04-19T04:43:03.576Z,1029.69
2017-04-19T04:44:14.991Z,1029.69
2017-04-19T04:45:26.008Z,1029.73
2017-04-19T04:46:37.057Z,1029.71
2017-04-19T04:47:48.335Z,1029.68
2017-04-19T04:48:59.343Z,1029.72
2017-04-19T04:50:10.360Z,1029.74
2017-04-19T04:51:21.384Z,1029.74
2017-04-19T04:52:32.407Z,1029.77
2017-04-19T04:53:43.478Z,1029.78
2017-04-19T04:54:54.498Z,1029.8
2017-04-19T04:56:05.549Z,1029.83
2017-04-19T04:57:16.563Z,1029.88
2017-04-19T04:58:27.586Z,1029.87
2017-04-19T04:59:38.614Z,1029.88
2017-04-19T05:00:49.636Z,1029.93
2017-04-19T05:02:00.650Z,1029.91
2017-04-19T05:03:11.678Z,1029.89
2017-04-19T05:04:22.690Z,1029.87
2017-04-19T05:05:33.956Z,1029.9
2017-04-19T05:06:44.990Z,1029.92
2017-04-19T05:07:56.008Z,1029.91
2017-04-19T05:09:07.025Z,1029.93
2017-04-19T05:10:18.035Z,1029.95
2017-04-19T05:11:29.063Z,1029.92
2017-04-19T05:12:40.085Z,1029.9
2017-04-19T05:13:51.302Z,1029.92
2017-04-19T05:15:02.625Z,1029.97
2017-04-19T05:16:13.832Z,1029.96
2017-04-19T05:17:24.847Z,1030.02
2017-04-19T05:18:35.874Z,1030.02
2017-04-19T05:19:47.099Z,1030
2017-04-19T05:20:58.353Z,1030
2017-04-19T05:22:09.392Z,1030.03
2017-04-19T05:23:20.412Z,1030.08
2017-04-19T05:24:31.424Z,1030.08
2017-04-19T05:25:42.695Z,1030.08
2017-04-19T05:26:53.705Z,1030.12
2017-04-19T05:28:04.926Z,1030.07
2017-04-19T05:29:16.153Z,1030.17
2017-04-19T05:30:27.169Z,1030.16
2017-04-19T05:31:38.175Z,1030.15
2017-04-19T05:32:49.402Z,1030.09
2017-04-19T05:34:00.636Z,1030.14
2017-04-19T05:35:11.867Z,1030.12
2017-04-19T05:36:23.029Z,1030.15
2017-04-19T05:37:34.051Z,1030.18
2017-04-19T05:38:45.070Z,1030.17
2017-04-19T05:39:56.098Z,1030.17
2017-04-19T05:41:07.118Z,1030.22
2017-04-19T05:42:18.135Z,1030.19
2017-04-19T05:43:29.151Z,1030.26
2017-04-19T05:44:40.368Z,1030.27
2017-04-19T05:45:51.433Z,1030.27
2017-04-19T05:47:02.462Z,1030.22
2017-04-19T05:48:13.740Z,1030.24
2017-04-19T05:49:24.758Z,1030.28
2017-04-19T05:50:35.780Z,1030.29
2017-04-19T05:51:46.799Z,1030.44
2017-04-19T05:52:58.014Z,1030.49
2017-04-19T05:54:09.037Z,1030.41
2017-04-19T05:55:20.060Z,1030.66
2017-04-19T05:56:31.078Z,1030.58
2017-04-19T05:57:42.360Z,1030.59
2017-04-19T05:58:53.582Z,1030.57
2017-04-19T06:00:04.719Z,1030.52
2017-04-19T06:01:15.867Z,1030.52
2017-04-19T06:02:26.887Z,1030.58
2017-04-19T06:03:37.914Z,1030.48
2017-04-19T06:04:49.142Z,1030.57
2017-04-19T06:06:00.369Z,1030.69
2017-04-19T06:07:11.379Z,1030.75
2017-04-19T06:08:22.449Z,1030.77
2017-04-19T06:09:33.474Z,1030.66
2017-04-19T06:10:44.509Z,1030.6
2017-04-19T06:11:55.526Z,1030.66
2017-04-19T06:13:06.539Z,1030.79
2017-04-19T06:14:17.744Z,1030.73
2017-04-19T06:15:28.769Z,1031.01
2017-04-19T06:16:39.816Z,1031.21
2017-04-19T06:17:50.861Z,1031.16
2017-04-19T06:19:01.872Z,1031.06
2017-04-19T06:20:13.177Z,1031.11
2017-04-19T06:21:24.221Z,1031.34
2017-04-19T06:22:35.279Z,1031.54
2017-04-19T06:23:46.304Z,1031.73
2017-04-19T06:24:57.323Z,1031.92
2017-04-19T06:26:08.597Z,1031.59
2017-04-19T06:27:19.622Z,1031.61
2017-04-19T06:28:30.655Z,1031.92
2017-04-19T06:29:41.673Z,1032.26
2017-04-19T06:30:52.707Z,1032.28
2017-04-19T06:32:03.740Z,1032.14
2017-04-19T06:33:14.764Z,1032.3
2017-04-19T06:34:25.785Z,1032.57
2017-04-19T06:35:36.858Z,1032.73
2017-04-19T06:36:47.878Z,1032.86
2017-04-19T06:37:58.913Z,1032.88
2017-04-19T06:39:09.933Z,1032.82
2017-04-19T06:40:20.954Z,1032.86
2017-04-19T06:41:31.979Z,1032.81
2017-04-19T06:42:43.026Z,1032.77
2017-04-19T06:43:54.054Z,1032.74
2017-04-19T06:45:05.077Z,1032.64
2017-04-19T06:46:16.150Z,1032.65
2017-04-19T06:47:27.188Z,1032.52
2017-04-19T06:48:38.210Z,1032.39
2017-04-19T06:49:49.451Z,1032.48
2017-04-19T06:51:00.487Z,1032.43
2017-04-19T06:52:11.778Z,1032.46
2017-04-19T06:53:22.807Z,1032.47
2017-04-19T06:54:33.833Z,1032.49
2017-04-19T06:55:44.868Z,1032.5
2017-04-19T06:56:55.923Z,1032.42
2017-04-19T06:58:06.953Z,1032.47
2017-04-19T06:59:17.982Z,1032.44
2017-04-19T07:00:29.223Z,1032.62
2017-04-19T07:01:40.264Z,1032.65
2017-04-19T07:02:51.289Z,1032.78
2017-04-19T07:04:02.772Z,1032.88
2017-04-19T07:05:14.017Z,1033.1
2017-04-19T07:06:25.094Z,1033.27
2017-04-19T07:07:36.125Z,1033.49
2017-04-19T07:08:47.366Z,1033.54
2017-04-19T07:09:58.404Z,1033.66
2017-04-19T07:11:09.638Z,1033.82
2017-04-19T07:12:20.673Z,1033.99
2017-04-19T07:13:31.951Z,1034.26
2017-04-19T07:14:42.991Z,1034.58
2017-04-19T07:15:54.224Z,1034.84
2017-04-19T07:17:05.253Z,1035.23
2017-04-19T07:18:16.542Z,1034.22
2017-04-19T07:19:27.783Z,1035.59
2017-04-19T07:20:38.813Z,1035.25
2017-04-19T07:21:49.850Z,1034.81
2017-04-19T07:23:00.886Z,1034.19
2017-04-19T07:24:12.161Z,1033.48
2017-04-19T07:25:23.199Z,1032.74
2017-04-19T07:26:34.329Z,1031.95
2017-04-19T07:27:45.457Z,1032.07
2017-04-19T07:28:56.501Z,1031.96
2017-04-19T07:30:07.547Z,1031.89
2017-04-19T07:31:18.591Z,1031.83
2017-04-19T07:32:29.631Z,1031.82
2017-04-19T07:33:40.677Z,1031.88
2017-04-19T07:34:51.705Z,1031.84
2017-04-19T07:36:02.740Z,1031.77
2017-04-19T07:37:13.780Z,1031.76
2017-04-19T07:38:25.008Z,1031.83
2017-04-19T07:39:36.043Z,1031.86
2017-04-19T07:40:47.282Z,1031.88
2017-04-19T07:41:58.329Z,1031.49
2017-04-19T07:43:09.352Z,1031.49
2017-04-19T07:44:20.381Z,1031.79
2017-04-19T07:45:31.432Z,1031.89
2017-04-19T07:46:42.943Z,1031.6
2017-04-19T07:47:53.975Z,1031.46
2017-04-19T07:49:05.041Z,1031.87
2017-04-19T07:50:16.073Z,1031.89
2017-04-19T07:51:27.127Z,1031.6
2017-04-19T07:52:38.164Z,1031.7
2017-04-19T07:53:49.194Z,1032.01
2017-04-19T07:55:00.229Z,1031.75
2017-04-19T07:56:11.717Z,1031.7
2017-04-19T07:57:22.951Z,1031.89
2017-04-19T07:58:33.991Z,1032.01
2017-04-19T07:59:45.018Z,1031.81
2017-04-19T08:00:56.043Z,1031.84
2017-04-19T08:02:07.118Z,1031.61
2017-04-19T08:03:18.548Z,1031.62
2017-04-19T08:04:29.571Z,1031.76
2017-04-19T08:05:40.605Z,1031.63
2017-04-19T08:06:52.121Z,1031.6
2017-04-19T08:08:03.146Z,1031.75
2017-04-19T08:09:14.183Z,1031.75
2017-04-19T08:10:25.215Z,1031.7
2017-04-19T08:11:36.239Z,1031.56
2017-04-19T08:12:47.271Z,1031.62
2017-04-19T08:13:58.516Z,1031.64
2017-04-19T08:15:09.757Z,1031.73
2017-04-19T08:16:20.785Z,1031.92
2017-04-19T08:17:32.019Z,1031.59
2017-04-19T08:18:43.047Z,1031.63
2017-04-19T08:19:54.270Z,1031.77
2017-04-19T08:21:05.307Z,1031.9
2017-04-19T08:22:16.352Z,1032
2017-04-19T08:23:27.596Z,1031.89
2017-04-19T08:24:38.869Z,1031.8
2017-04-19T08:25:49.897Z,1031.9
2017-04-19T08:27:00.926Z,1031.9
2017-04-19T08:28:11.951Z,1031.66
2017-04-19T08:29:22.978Z,1032.04
2017-04-19T08:30:34.018Z,1032.12
2017-04-19T08:31:45.065Z,1031.92
2017-04-19T08:32:56.303Z,1032.01
2017-04-19T08:34:07.390Z,1031.84
2017-04-19T08:35:18.417Z,1032.01
2017-04-19T08:36:29.440Z,1032.03
2017-04-19T08:37:40.479Z,1032.06
2017-04-19T08:38:51.506Z,1032.06
2017-04-19T08:40:02.734Z,1032.07
2017-04-19T08:41:13.770Z,1031.99
2017-04-19T08:42:24.812Z,1031.93
2017-04-19T08:43:35.854Z,1031.88
2017-04-19T08:44:46.932Z,1031.95
2017-04-19T08:45:58.267Z,1032.12
2017-04-19T08:47:09.451Z,1032.07
2017-04-19T08:48:20.484Z,1032.19
2017-04-19T08:49:31.714Z,1032.13
2017-04-19T08:50:42.745Z,1032.29
2017-04-19T08:51:53.791Z,1032.19
2017-04-19T08:53:05.425Z,1032.3
2017-04-19T08:54:16.666Z,1032.24
2017-04-19T08:55:27.918Z,1032.4
2017-04-19T08:56:38.957Z,1032.47
2017-04-19T08:57:49.990Z,1033.08
2017-04-19T08:59:01.234Z,1034.32
2017-04-19T09:00:12.263Z,1037.24
2017-04-19T09:01:23.297Z,1040.51
2017-04-19T09:02:34.600Z,1043.87
2017-04-19T09:03:45.653Z,1045.04
2017-04-19T09:04:56.681Z,1044.41
2017-04-19T09:06:07.960Z,1042.63
2017-04-19T09:07:19.072Z,1032.11
2017-04-19T09:08:30.319Z,1043.03
2017-04-19T09:09:41.563Z,1043.22
2017-04-19T09:10:52.597Z,1032.47
2017-04-19T09:12:04.091Z,1043.67
2017-04-19T09:13:15.132Z,1031.88
2017-04-19T09:14:26.184Z,1036.81
2017-04-19T09:15:37.220Z,1041.96
2017-04-19T09:16:48.663Z,1041.43
2017-04-19T09:17:59.700Z,1041.45
2017-04-19T09:19:10.745Z,1040.82
2017-04-19T09:20:21.783Z,1040.76
2017-04-19T09:21:33.025Z,1040.6
2017-04-19T09:22:44.319Z,1040.53
2017-04-19T09:23:55.638Z,1034.63
2017-04-19T09:25:07.015Z,1033.09
2017-04-19T09:26:18.070Z,1038.9
2017-04-19T09:27:29.302Z,1038.2
2017-04-19T09:28:40.337Z,1037.98
2017-04-19T09:29:51.377Z,1038.21
2017-04-19T09:31:02.424Z,1037.56
2017-04-19T09:32:13.468Z,1037.69
2017-04-19T09:33:24.510Z,1037.06
2017-04-19T09:34:35.546Z,1036.14
2017-04-19T09:35:46.583Z,1035.07
2017-04-19T09:36:57.815Z,1032.8
2017-04-19T09:38:08.862Z,1032.02
2017-04-19T09:39:19.904Z,1031.99
2017-04-19T09:40:30.988Z,1032.07
2017-04-19T09:41:42.037Z,1033.9
2017-04-19T09:42:53.068Z,1033.2
2017-04-19T09:44:04.230Z,1033.34
2017-04-19T09:45:15.638Z,1032.93
2017-04-19T09:46:26.837Z,1033.15
2017-04-19T09:47:37.881Z,1032.27
2017-04-19T09:48:48.899Z,1032.19
2017-04-19T09:49:59.980Z,1032.17
2017-04-19T09:51:11.024Z,1032.15
2017-04-19T09:52:22.070Z,1033.33
2017-04-19T09:53:33.303Z,1032.05
2017-04-19T09:54:44.547Z,1031.99
2017-04-19T09:55:55.591Z,1033.33
2017-04-19T09:57:06.663Z,1032.08
2017-04-19T09:58:17.699Z,1032.13
2017-04-19T09:59:28.741Z,1033.92
2017-04-19T10:00:39.840Z,1032.22
2017-04-19T10:01:50.871Z,1032.1
2017-04-19T10:03:01.907Z,1032.05
2017-04-19T10:04:13.205Z,1032.19
2017-04-19T10:05:24.243Z,1032.21
2017-04-19T10:06:35.751Z,1032.1
2017-04-19T10:07:46.783Z,1032.19
2017-04-19T10:08:57.809Z,1032.27
2017-04-19T10:10:08.826Z,1032.28
2017-04-19T10:11:19.876Z,1033.16
2017-04-19T10:12:30.899Z,1032.07
2017-04-19T10:13:41.924Z,1032.08
2017-04-19T10:14:52.955Z,1032.15
2017-04-19T10:16:03.978Z,1032.13
2017-04-19T10:17:15.036Z,1032.18
2017-04-19T10:18:26.304Z,1032.03
2017-04-19T10:19:37.330Z,1032.03
2017-04-19T10:20:48.579Z,1032.02
2017-04-19T10:21:59.606Z,1031.96
2017-04-19T10:23:10.790Z,1032.06
2017-04-19T10:24:21.912Z,1032.03
2017-04-19T10:25:32.935Z,1032.08
2017-04-19T10:26:44.140Z,1032.11
2017-04-19T10:27:55.252Z,1032.08
2017-04-19T10:29:06.291Z,1031.96
2017-04-19T10:30:17.332Z,1032.02
2017-04-19T10:31:28.364Z,1031.97
2017-04-19T10:32:39.380Z,1031.98
2017-04-19T10:33:50.396Z,1031.98
2017-04-19T10:35:01.425Z,1032.01
2017-04-19T10:36:12.454Z,1032.22
2017-04-19T10:37:23.480Z,1032
2017-04-19T10:38:34.764Z,1031.97
2017-04-19T10:39:45.785Z,1031.9
2017-04-19T10:40:56.809Z,1031.93
2017-04-19T10:42:07.850Z,1031.9
2017-04-19T10:43:19.072Z,1032.03
2017-04-19T10:44:30.309Z,1031.91
2017-04-19T10:45:41.456Z,1031.87
2017-04-19T10:46:52.962Z,1031.81
2017-04-19T10:48:03.983Z,1031.79
2017-04-19T10:49:15.013Z,1031.81
2017-04-19T10:50:26.038Z,1031.83
2017-04-19T10:51:37.055Z,1031.85
2017-04-19T10:52:48.289Z,1031.87
2017-04-19T10:53:59.329Z,1031.88
2017-04-19T10:55:10.356Z,1031.79
2017-04-19T10:56:21.431Z,1031.81
2017-04-19T10:57:32.656Z,1031.81
2017-04-19T10:58:44.066Z,1031.76
2017-04-19T10:59:55.083Z,1031.79
2017-04-19T11:01:06.117Z,1031.82
2017-04-19T11:02:17.156Z,1031.75
2017-04-19T11:03:28.379Z,1031.81
2017-04-19T11:04:39.491Z,1031.83
2017-04-19T11:05:50.557Z,1031.82
2017-04-19T11:07:01.652Z,1031.8
2017-04-19T11:08:12.679Z,1031.77
2017-04-19T11:09:23.892Z,1031.79
2017-04-19T11:10:34.916Z,1031.78
2017-04-19T11:11:45.934Z,1031.82
2017-04-19T11:12:56.950Z,1031.87
2017-04-19T11:14:07.974Z,1031.81
2017-04-19T11:15:19.013Z,1031.75
2017-04-19T11:16:30.086Z,1031.8
2017-04-19T11:17:41.103Z,1031.81
2017-04-19T11:18:52.332Z,1031.83
2017-04-19T11:20:03.348Z,1031.88
2017-04-19T11:21:14.370Z,1031.87
2017-04-19T11:22:25.381Z,1031.87
2017-04-19T11:23:36.406Z,1031.85
2017-04-19T11:24:47.428Z,1031.86
2017-04-19T11:25:58.455Z,1031.87
2017-04-19T11:27:09.691Z,1031.82
2017-04-19T11:28:20.927Z,1031.88
2017-04-19T11:29:31.962Z,1031.89
2017-04-19T11:30:42.993Z,1031.88
2017-04-19T11:31:54.228Z,1031.9
2017-04-19T11:33:05.652Z,1031.87
2017-04-19T11:34:16.727Z,1031.82
2017-04-19T11:35:27.749Z,1031.85
2017-04-19T11:36:38.781Z,1031.82
2017-04-19T11:37:49.810Z,1031.96
2017-04-19T11:39:00.842Z,1031.97
2017-04-19T11:40:11.861Z,1032
2017-04-19T11:41:22.890Z,1031.99
2017-04-19T11:42:33.924Z,1031.89
2017-04-19T11:43:45.012Z,1031.98
2017-04-19T11:44:56.039Z,1031.81
2017-04-19T11:46:07.306Z,1031.89
2017-04-19T11:47:18.338Z,1031.86
2017-04-19T11:48:29.411Z,1032
2017-04-19T11:49:40.449Z,1031.92
2017-04-19T11:50:51.672Z,1031.92
2017-04-19T11:52:02.709Z,1031.94
2017-04-19T11:53:13.947Z,1031.9
2017-04-19T11:54:25.026Z,1031.94
2017-04-19T11:55:36.046Z,1031.96
2017-04-19T11:56:47.091Z,1031.83
2017-04-19T11:57:58.324Z,1031.8
2017-04-19T11:59:09.374Z,1031.75
2017-04-19T12:00:20.406Z,1031.76
2017-04-19T12:01:31.435Z,1031.73
2017-04-19T12:02:42.674Z,1031.75
2017-04-19T12:03:53.705Z,1031.79
2017-04-19T12:05:04.935Z,1031.82
2017-04-19T12:06:15.978Z,1031.89
2017-04-19T12:07:27.209Z,1031.97
2017-04-19T12:08:38.282Z,1031.95
2017-04-19T12:09:49.310Z,1031.97
2017-04-19T12:11:00.334Z,1031.91
2017-04-19T12:12:11.356Z,1031.9
2017-04-19T12:13:22.383Z,1031.84
2017-04-19T12:14:33.412Z,1031.88
2017-04-19T12:15:44.688Z,1031.85
2017-04-19T12:16:55.709Z,1031.83
2017-04-19T12:18:06.739Z,1031.92
2017-04-19T12:19:17.762Z,1031.88
2017-04-19T12:20:28.783Z,1031.93
2017-04-19T12:21:39.824Z,1031.9
2017-04-19T12:22:50.855Z,1031.85
2017-04-19T12:24:01.875Z,1031.79
2017-04-19T12:25:13.111Z,1031.77
2017-04-19T12:26:24.576Z,1031.76
2017-04-19T12:27:35.607Z,1031.78
2017-04-19T12:28:46.637Z,1031.73
2017-04-19T12:29:57.667Z,1031.71
2017-04-19T12:31:08.698Z,1031.78
2017-04-19T12:32:19.741Z,1031.77
2017-04-19T12:33:30.756Z,1031.75
2017-04-19T12:34:41.782Z,1031.74
2017-04-19T12:35:52.821Z,1031.81
2017-04-19T12:37:03.898Z,1031.72
2017-04-19T12:38:15.132Z,1031.79
2017-04-19T12:39:26.160Z,1031.75
2017-04-19T12:40:37.191Z,1031.72
2017-04-19T12:41:48.228Z,1031.69
2017-04-19T12:42:59.265Z,1031.68
2017-04-19T12:44:10.498Z,1031.67
2017-04-19T12:45:21.736Z,1031.7
2017-04-19T12:46:32.768Z,1031.74
2017-04-19T12:47:43.808Z,1031.7
2017-04-19T12:48:54.987Z,1031.75
2017-04-19T12:50:06.007Z,1031.74
2017-04-19T12:51:17.039Z,1031.68
2017-04-19T12:52:28.064Z,1031.63
2017-04-19T12:53:39.080Z,1031.62
2017-04-19T12:54:50.099Z,1031.64
2017-04-19T12:56:01.131Z,1031.66
2017-04-19T12:57:12.166Z,1031.66
2017-04-19T12:58:23.262Z,1031.67
2017-04-19T12:59:34.289Z,1031.64
2017-04-19T13:00:45.313Z,1031.59
2017-04-19T13:01:56.330Z,1031.57
2017-04-19T13:03:07.552Z,1031.5
2017-04-19T13:04:18.782Z,1031.58
2017-04-19T13:05:30.027Z,1031.59
2017-04-19T13:06:41.049Z,1031.58
2017-04-19T13:07:52.069Z,1031.55
2017-04-19T13:09:03.149Z,1031.55
2017-04-19T13:10:14.157Z,1031.56
2017-04-19T13:11:25.185Z,1031.58
2017-04-19T13:12:36.215Z,1031.61
2017-04-19T13:13:47.226Z,1031.66
2017-04-19T13:14:58.260Z,1031.66
2017-04-19T13:16:09.285Z,1031.71
2017-04-19T13:17:20.318Z,1031.65
2017-04-19T13:18:31.347Z,1031.61
2017-04-19T13:19:42.382Z,1031.63
2017-04-19T13:20:53.397Z,1031.53
2017-04-19T13:22:04.626Z,1031.48
2017-04-19T13:23:15.658Z,1031.44
2017-04-19T13:24:26.673Z,1031.47
2017-04-19T13:25:37.704Z,1031.4
2017-04-19T13:26:48.939Z,1031.41
2017-04-19T13:27:59.959Z,1031.44
2017-04-19T13:29:11.191Z,1031.46
2017-04-19T13:30:22.363Z,1031.46
2017-04-19T13:31:33.634Z,1031.47
2017-04-19T13:32:44.665Z,1031.45
2017-04-19T13:33:55.889Z,1031.51
2017-04-19T13:35:06.918Z,1031.5
2017-04-19T13:36:17.944Z,1031.5
2017-04-19T13:37:28.961Z,1031.46
2017-04-19T13:38:39.983Z,1031.52
2017-04-19T13:39:51.001Z,1031.57
2017-04-19T13:41:02.281Z,1031.53
2017-04-19T13:42:13.299Z,1031.44
2017-04-19T13:43:24.529Z,1031.45
2017-04-19T13:44:35.750Z,1031.42
2017-04-19T13:45:46.773Z,1031.39
2017-04-19T13:46:58.005Z,1031.42
2017-04-19T13:48:09.041Z,1031.47
2017-04-19T13:49:20.162Z,1031.47
2017-04-19T13:50:31.380Z,1031.45
2017-04-19T13:51:42.671Z,1031.43
2017-04-19T13:52:53.697Z,1031.34
2017-04-19T13:54:04.937Z,1031.38
2017-04-19T13:55:15.973Z,1031.36
2017-04-19T13:56:27.006Z,1031.38
2017-04-19T13:57:38.060Z,1031.42
2017-04-19T13:58:49.094Z,1031.36
2017-04-19T14:00:00.308Z,1031.35
2017-04-19T14:01:11.336Z,1031.29
2017-04-19T14:02:22.353Z,1031.24
2017-04-19T14:03:33.582Z,1031.21
2017-04-19T14:04:44.816Z,1031.19
2017-04-19T14:05:55.851Z,1031.16
2017-04-19T14:07:06.874Z,1031.18
2017-04-19T14:08:17.906Z,1031.2
2017-04-19T14:09:28.977Z,1031.2
2017-04-19T14:10:40.202Z,1031.14
2017-04-19T14:11:51.229Z,1031.15
2017-04-19T14:13:02.437Z,1031.15
2017-04-19T14:14:13.461Z,1031.16
2017-04-19T14:15:24.488Z,1031.13
2017-04-19T14:16:35.507Z,1031.15
2017-04-19T14:17:46.738Z,1031.15
2017-04-19T14:18:58.199Z,1031.21
2017-04-19T14:20:09.227Z,1031.21
2017-04-19T14:21:20.255Z,1031.22
2017-04-19T14:22:31.283Z,1031.25
2017-04-19T14:23:42.299Z,1031.21
2017-04-19T14:24:53.322Z,1031.25
2017-04-19T14:26:04.354Z,1031.25
2017-04-19T14:27:15.374Z,1031.16
2017-04-19T14:28:26.401Z,1031.12
2017-04-19T14:29:37.880Z,1031.15
2017-04-19T14:30:48.903Z,1031.13
2017-04-19T14:32:00.129Z,1031.13
2017-04-19T14:33:11.152Z,1031.12
2017-04-19T14:34:22.175Z,1031.14
2017-04-19T14:35:33.219Z,1031.14
2017-04-19T14:36:44.240Z,1031.15
2017-04-19T14:37:55.261Z,1031.08
2017-04-19T14:39:06.270Z,1031.07